Time;durP1;ratioP1;P1;durP2;ratioP2;P2;SDS_P1;SDS_P2;PMS_P1;PMS_P2;Temp;Humidity;BMP_temperature;BMP_pressure;BME280_temperature;BME280_humidity;BME280_pressure;Samples;Min_cycle;Max_cycle;Signal;HPM_P1;HPM_P2
2021/07/20 00:00:20;;;;;;;9.53;8.53;;;;;23.50;100938.00;;;;2059355;28;20204;-65
2021/07/20 00:01:21;;;;;;;9.68;8.77;;;;;23.50;100945.00;;;;2059304;28;20631;-65
2021/07/20 00:02:35;;;;;;;9.73;8.30;;;;;23.50;100945.00;;;;2061179;28;20218;-65
2021/07/20 00:03:35;;;;;;;9.00;8.20;;;;;23.50;100944.00;;;;2049344;28;20313;-65
2021/07/20 00:04:36;;;;;;;8.70;7.90;;;;;23.50;100945.00;;;;2058783;28;20238;-65
2021/07/20 00:05:38;;;;;;;9.57;8.77;;;;;23.50;100946.00;;;;2059026;28;20231;-65
2021/07/20 00:06:39;;;;;;;9.00;8.10;;;;;23.50;100945.00;;;;2059914;28;20749;-65
2021/07/20 00:07:39;;;;;;;8.47;7.67;;;;;23.50;100945.00;;;;2060190;28;20216;-65
2021/07/20 00:08:40;;;;;;;9.60;8.00;;;;;23.50;100940.00;;;;2063587;28;20222;-65
2021/07/20 00:09:40;;;;;;;9.20;8.33;;;;;23.50;100941.00;;;;2062733;28;20224;-65
2021/07/20 00:10:49;;;;;;;8.93;8.13;;;;;23.50;100945.00;;;;2053475;28;20360;-65
2021/07/20 00:11:49;;;;;;;9.05;8.15;;;;;23.50;100945.00;;;;2067117;28;20230;-66
2021/07/20 00:12:50;;;;;;;9.57;8.60;;;;;23.50;100938.00;;;;2067879;28;20206;-65
2021/07/20 00:13:50;;;;;;;9.40;8.50;;;;;23.40;100938.00;;;;2067370;28;20214;-65
2021/07/20 00:14:50;;;;;;;8.40;7.60;;;;;23.50;100942.00;;;;2067222;28;20234;-66
2021/07/20 00:15:54;;;;;;;9.17;8.37;;;;;23.40;100947.00;;;;2066873;28;20276;-66
2021/07/20 00:16:55;;;;;;;9.30;8.40;;;;;23.40;100943.00;;;;2067382;28;20315;-64
2021/07/20 00:17:56;;;;;;;8.20;7.40;;;;;23.50;100940.00;;;;2068232;28;20230;-65
2021/07/20 00:18:57;;;;;;;9.40;8.40;;;;;23.50;100941.00;;;;2067446;28;20222;-65
2021/07/20 00:19:57;;;;;;;9.53;8.60;;;;;23.50;100943.00;;;;2068043;28;20620;-65
2021/07/20 00:20:57;;;;;;;9.10;8.30;;;;;23.50;100944.00;;;;2067448;28;20264;-65
2021/07/20 00:21:58;;;;;;;9.60;8.70;;;;;23.50;100939.00;;;;2067234;28;20248;-65
2021/07/20 00:22:58;;;;;;;9.73;8.73;;;;;23.50;100943.00;;;;2067410;28;20221;-65
2021/07/20 00:23:58;;;;;;;9.10;8.20;;;;;23.50;100943.00;;;;2067168;28;20214;-65
2021/07/20 00:24:59;;;;;;;8.90;8.10;;;;;23.50;100936.00;;;;2067063;28;20215;-65
2021/07/20 00:25:59;;;;;;;9.10;8.27;;;;;23.50;100939.00;;;;2067604;28;20935;-65
2021/07/20 00:26:59;;;;;;;9.30;8.50;;;;;23.50;100940.00;;;;2068075;28;20717;-65
2021/07/20 00:28:00;;;;;;;8.50;7.70;;;;;23.50;100946.00;;;;2067044;28;20765;-65
2021/07/20 00:29:01;;;;;;;8.10;7.30;;;;;23.50;100937.00;;;;2067282;28;20747;-65
2021/07/20 00:30:01;;;;;;;9.63;8.70;;;;;23.50;100937.00;;;;2067378;28;20530;-65
2021/07/20 00:31:02;;;;;;;9.17;7.80;;;;;23.50;100939.00;;;;2065912;28;21069;-65
2021/07/20 00:32:02;;;;;;;8.83;8.03;;;;;23.50;100943.00;;;;2066220;28;20832;-65
2021/07/20 00:33:03;;;;;;;8.30;7.57;;;;;23.50;100946.00;;;;2066692;28;20860;-65
2021/07/20 00:34:03;;;;;;;8.20;7.50;;;;;23.50;100942.00;;;;2066284;28;20301;-65
2021/07/20 00:35:04;;;;;;;8.80;8.00;;;;;23.50;100939.00;;;;2067040;28;20230;-65
2021/07/20 00:36:05;;;;;;;8.82;7.93;;;;;23.50;100935.00;;;;2065408;28;20757;-65
2021/07/20 00:37:06;;;;;;;9.32;8.43;;;;;23.50;100935.00;;;;2067496;28;20226;-65
2021/07/20 00:38:06;;;;;;;9.23;8.33;;;;;23.50;100933.00;;;;2069259;28;20230;-65
2021/07/20 00:39:07;;;;;;;8.40;7.60;;;;;23.40;100934.00;;;;2068149;28;20218;-65
2021/07/20 00:40:09;;;;;;;8.90;8.00;;;;;23.40;100937.00;;;;2056942;28;20685;-65
2021/07/20 00:41:10;;;;;;;8.63;7.82;;;;;23.50;100937.00;;;;2065261;28;20219;-65
2021/07/20 00:42:10;;;;;;;8.80;7.90;;;;;23.40;100938.00;;;;2065956;28;20705;-65
2021/07/20 00:43:11;;;;;;;8.73;7.90;;;;;23.40;100937.00;;;;2067681;28;20577;-65
2021/07/20 00:44:11;;;;;;;9.40;8.30;;;;;23.50;100937.00;;;;2067513;28;20616;-65
2021/07/20 00:45:14;;;;;;;9.73;8.83;;;;;23.40;100940.00;;;;2068010;28;20217;-65
2021/07/20 00:46:14;;;;;;;9.77;8.88;;;;;23.40;100935.00;;;;2067798;28;20217;-64
2021/07/20 00:47:14;;;;;;;9.07;8.17;;;;;23.40;100933.00;;;;2067033;28;20222;-65
2021/07/20 00:48:15;;;;;;;9.03;8.13;;;;;23.40;100938.00;;;;2066992;28;20210;-65
2021/07/20 00:49:15;;;;;;;9.60;8.70;;;;;23.40;100944.00;;;;2067021;28;20218;-65
2021/07/20 00:50:18;;;;;;;9.00;8.10;;;;;23.40;100939.00;;;;2066371;28;20332;-65
2021/07/20 00:51:18;;;;;;;9.50;8.50;;;;;23.40;100938.00;;;;2066501;28;21014;-65
2021/07/20 00:52:19;;;;;;;9.60;8.70;;;;;23.40;100935.00;;;;2066427;28;20229;-65
2021/07/20 00:53:19;;;;;;;9.43;8.53;;;;;23.40;100933.00;;;;2066452;28;20261;-65
2021/07/20 00:54:19;;;;;;;9.23;8.27;;;;;23.40;100928.00;;;;2058008;28;20270;-65
2021/07/20 00:55:20;;;;;;;9.20;8.30;;;;;23.40;100938.00;;;;2050452;28;20254;-65
2021/07/20 00:56:21;;;;;;;9.70;8.80;;;;;23.40;100934.00;;;;2059316;28;20214;-65
2021/07/20 00:57:22;;;;;;;8.80;8.00;;;;;23.40;100933.00;;;;2051056;28;20240;-65
2021/07/20 00:58:22;;;;;;;9.20;8.30;;;;;23.40;100937.00;;;;2059160;28;20223;-65
2021/07/20 00:59:23;;;;;;;9.30;8.50;;;;;23.40;100932.00;;;;2050576;28;20215;-65
2021/07/20 01:00:23;;;;;;;9.87;8.87;;;;;23.40;100938.00;;;;2049880;28;20318;-66
2021/07/20 01:01:24;;;;;;;9.97;8.97;;;;;23.40;100938.00;;;;2050435;28;20211;-65
2021/07/20 01:02:25;;;;;;;9.83;8.83;;;;;23.40;100937.00;;;;2058265;28;20263;-65
2021/07/20 01:03:25;;;;;;;9.47;8.57;;;;;23.40;100933.00;;;;2050544;28;20456;-65
2021/07/20 01:04:26;;;;;;;9.40;8.50;;;;;23.40;100929.00;;;;2059151;28;20733;-65
2021/07/20 01:05:26;;;;;;;9.73;8.83;;;;;23.50;100932.00;;;;2067988;28;20701;-66
2021/07/20 01:06:34;;;;;;;9.23;8.33;;;;;23.40;100925.00;;;;2067704;28;20709;-65
2021/07/20 01:07:35;;;;;;;9.90;9.00;;;;;23.40;100935.00;;;;2050828;28;20212;-66
2021/07/20 01:08:35;;;;;;;9.80;8.90;;;;;23.40;100932.00;;;;2051281;28;20208;-65
2021/07/20 01:09:35;;;;;;;10.03;9.03;;;;;23.40;100925.00;;;;2070166;28;21056;-66
2021/07/20 01:10:37;;;;;;;10.17;9.17;;;;;23.40;100934.00;;;;2064410;28;20818;-66
2021/07/20 01:11:37;;;;;;;9.85;8.90;;;;;23.40;100934.00;;;;2051257;28;20224;-65
2021/07/20 01:12:39;;;;;;;9.80;8.80;;;;;23.40;100933.00;;;;2051091;28;20204;-66
2021/07/20 01:13:39;;;;;;;10.70;9.10;;;;;23.40;100934.00;;;;2058943;28;20231;-65
2021/07/20 01:14:40;;;;;;;9.97;8.97;;;;;23.40;100932.00;;;;2058720;28;20223;-66
2021/07/20 01:15:41;;;;;;;9.30;8.40;;;;;23.40;100934.00;;;;2050186;28;20224;-66
2021/07/20 01:16:43;;;;;;;9.77;8.83;;;;;23.40;100931.00;;;;2050320;28;20559;-66
2021/07/20 01:17:44;;;;;;;10.10;9.10;;;;;23.40;100934.00;;;;2050152;28;20224;-65
2021/07/20 01:18:44;;;;;;;10.10;9.10;;;;;23.40;100927.00;;;;2058859;28;20223;-66
2021/07/20 01:19:51;;;;;;;10.53;9.50;;;;;23.40;100931.00;;;;2059042;28;20223;-66
2021/07/20 01:20:52;;;;;;;10.00;9.00;;;;;23.40;100938.00;;;;2059244;28;20211;-66
2021/07/20 01:21:53;;;;;;;10.30;9.17;;;;;23.40;100938.00;;;;2050801;28;20251;-66
2021/07/20 01:23:09;;;;;;;9.83;8.93;;;;;23.40;100933.00;;;;2050105;28;20369;-65
2021/07/20 01:24:16;;;;;;;11.00;9.93;;;;;23.40;100942.00;;;;2067037;28;20218;-66
2021/07/20 01:25:16;;;;;;;9.82;8.80;;;;;23.40;100931.00;;;;2067621;28;20273;-66
2021/07/20 01:26:17;;;;;;;10.37;9.33;;;;;23.40;100937.00;;;;2067611;28;20268;-66
2021/07/20 01:27:17;;;;;;;10.87;9.77;;;;;23.40;100936.00;;;;2067481;28;20225;-66
2021/07/20 01:28:20;;;;;;;9.83;8.97;;;;;23.40;100934.00;;;;2066789;28;20226;-65
2021/07/20 01:29:21;;;;;;;10.43;9.43;;;;;23.40;100928.00;;;;2058192;28;20215;-66
2021/07/20 01:30:21;;;;;;;10.10;9.10;;;;;23.40;100929.00;;;;2049614;28;20242;-66
2021/07/20 01:31:23;;;;;;;10.70;9.63;;;;;23.40;100932.00;;;;2058084;28;20718;-65
2021/07/20 01:32:23;;;;;;;10.15;9.25;;;;;23.40;100923.00;;;;2051013;28;20295;-65
2021/07/20 01:33:24;;;;;;;10.53;9.53;;;;;23.40;100932.00;;;;2050867;28;20224;-65
2021/07/20 01:34:25;;;;;;;11.00;9.90;;;;;23.40;100934.00;;;;2050918;28;20279;-65
2021/07/20 01:35:25;;;;;;;10.10;9.17;;;;;23.40;100939.00;;;;2058775;28;20498;-66
2021/07/20 01:36:25;;;;;;;10.60;9.60;;;;;23.40;100938.00;;;;2050033;28;20753;-66
2021/07/20 01:37:26;;;;;;;10.80;9.77;;;;;23.40;100922.00;;;;2050063;28;20220;-66
2021/07/20 01:38:26;;;;;;;10.40;9.47;;;;;23.40;100941.00;;;;2040885;28;20313;-66
2021/07/20 01:39:26;;;;;;;10.90;9.80;;;;;23.40;100937.00;;;;2047198;28;20224;-66
2021/07/20 01:40:27;;;;;;;10.67;9.57;;;;;23.40;100933.00;;;;2049756;28;20866;-66
2021/07/20 01:41:27;;;;;;;10.13;9.23;;;;;23.40;100939.00;;;;2044314;28;20219;-66
2021/07/20 01:42:27;;;;;;;11.53;10.43;;;;;23.40;100932.00;;;;2040892;29;20217;-66
2021/07/20 01:43:28;;;;;;;10.83;9.77;;;;;23.40;100928.00;;;;2045432;28;20212;-65
2021/07/20 01:44:28;;;;;;;11.23;10.20;;;;;23.40;100933.00;;;;2042607;29;20247;-65
2021/07/20 01:45:29;;;;;;;10.33;9.30;;;;;23.40;100932.00;;;;2033773;29;20214;-66
2021/07/20 01:46:30;;;;;;;10.82;9.75;;;;;23.40;100935.00;;;;2048069;28;20251;-65
2021/07/20 01:47:30;;;;;;;10.73;9.63;;;;;23.40;100929.00;;;;2058589;28;20219;-66
2021/07/20 01:48:33;;;;;;;10.10;9.07;;;;;23.40;100928.00;;;;2051146;28;20236;-65
2021/07/20 01:49:33;;;;;;;11.13;10.02;;;;;23.40;100936.00;;;;2044371;28;20261;-65
2021/07/20 01:50:35;;;;;;;10.10;9.10;;;;;23.40;100930.00;;;;2049110;28;20314;-66
2021/07/20 01:51:35;;;;;;;9.30;8.40;;;;;23.40;100933.00;;;;2047387;28;20212;-65
2021/07/20 01:52:36;;;;;;;11.03;9.90;;;;;23.40;100931.00;;;;2042283;29;20215;-65
2021/07/20 01:53:36;;;;;;;11.13;10.03;;;;;23.40;100933.00;;;;2033978;29;20221;-66
2021/07/20 01:54:36;;;;;;;11.00;9.90;;;;;23.40;100927.00;;;;2042302;28;20308;-65
2021/07/20 01:55:37;;;;;;;10.40;9.40;;;;;23.40;100934.00;;;;2056131;28;20215;-66
2021/07/20 01:56:38;;;;;;;10.30;9.20;;;;;23.40;100930.00;;;;2052281;28;20259;-66
2021/07/20 01:57:38;;;;;;;11.30;10.10;;;;;23.40;100939.00;;;;2050885;28;20324;-66
2021/07/20 01:58:42;;;;;;;10.20;9.20;;;;;23.40;100927.00;;;;2050862;28;20455;-66
2021/07/20 01:59:43;;;;;;;9.90;8.95;;;;;23.40;100931.00;;;;2059291;28;20705;-65
2021/07/20 02:00:43;;;;;;;10.10;9.10;;;;;23.40;100935.00;;;;2049469;28;20207;-66
2021/07/20 02:02:33;;;;;;;10.70;9.60;;;;;23.40;100930.00;;;;2044209;28;20216;-66
2021/07/20 02:04:25;;;;;;;10.82;9.82;;;;;23.40;100935.00;;;;2059325;28;20215;-66
2021/07/20 02:08:26;;;;;;;11.35;10.15;;;;;23.40;100941.00;;;;2049222;28;20220;-66
2021/07/20 02:09:27;;;;;;;10.80;9.80;;;;;23.40;100938.00;;;;2049447;28;20679;-66
2021/07/20 02:10:28;;;;;;;10.95;9.77;;;;;23.40;100935.00;;;;2044145;29;20227;-66
2021/07/20 02:11:31;;;;;;;11.23;9.83;;;;;23.40;100932.00;;;;2042183;28;20609;-66
2021/07/20 02:12:38;;;;;;;10.68;9.23;;;;;23.40;100927.00;;;;2042967;28;20540;-66
2021/07/20 02:13:43;;;;;;;11.27;9.95;;;;;23.40;100938.00;;;;2043751;28;20238;-65
2021/07/20 02:14:44;;;;;;;11.77;10.57;;;;;23.40;100932.00;;;;2051436;28;20798;-66
2021/07/20 02:15:47;;;;;;;11.20;10.02;;;;;23.40;100939.00;;;;2049972;28;20247;-66
2021/07/20 02:16:48;;;;;;;10.27;9.25;;;;;23.40;100931.00;;;;2050376;28;20212;-66
2021/07/20 02:17:48;;;;;;;9.87;8.80;;;;;23.40;100937.00;;;;2048928;28;20298;-66
2021/07/20 02:18:54;;;;;;;10.80;9.50;;;;;23.40;100929.00;;;;2050734;28;20216;-65
2021/07/20 02:19:58;;;;;;;10.32;9.32;;;;;23.40;100939.00;;;;2035407;29;20763;-66
2021/07/20 02:21:01;;;;;;;10.25;9.25;;;;;23.40;100938.00;;;;2034241;29;20299;-66
2021/07/20 02:22:02;;;;;;;11.30;9.65;;;;;23.40;100937.00;;;;2033985;29;20312;-66
2021/07/20 02:23:03;;;;;;;10.73;9.73;;;;;23.40;100933.00;;;;2042769;28;20220;-66
2021/07/20 02:24:03;;;;;;;11.10;9.97;;;;;23.30;100931.00;;;;2042280;29;20220;-66
2021/07/20 02:25:04;;;;;;;10.60;9.50;;;;;23.40;100936.00;;;;2040557;29;20293;-66
2021/07/20 02:26:05;;;;;;;10.32;9.23;;;;;23.40;100932.00;;;;2053773;28;20208;-65
2021/07/20 02:27:07;;;;;;;9.90;8.90;;;;;23.40;100935.00;;;;2059996;28;20195;-66
2021/07/20 02:28:08;;;;;;;9.77;8.77;;;;;23.40;100937.00;;;;2060934;28;20207;-65
2021/07/20 02:29:09;;;;;;;10.43;9.33;;;;;23.40;100936.00;;;;2051187;28;20690;-65
2021/07/20 02:30:12;;;;;;;10.50;9.45;;;;;23.40;100932.00;;;;2051697;28;20218;-65
2021/07/20 02:31:12;;;;;;;9.90;8.88;;;;;23.40;100949.00;;;;2043193;29;20248;-66
2021/07/20 02:32:13;;;;;;;10.17;9.17;;;;;23.40;100937.00;;;;2043580;28;20265;-66
2021/07/20 02:33:13;;;;;;;10.80;9.70;;;;;23.40;100936.00;;;;2052358;28;20656;-66
2021/07/20 02:34:14;;;;;;;10.73;9.50;;;;;23.40;100941.00;;;;2052084;28;20316;-66
2021/07/20 02:35:20;;;;;;;10.23;9.23;;;;;23.40;100938.00;;;;2052060;28;20210;-66
2021/07/20 02:36:20;;;;;;;10.80;9.45;;;;;23.40;100935.00;;;;2060107;28;20207;-66
2021/07/20 02:37:21;;;;;;;9.70;8.70;;;;;23.40;100942.00;;;;2059922;28;20230;-66
2021/07/20 02:38:21;;;;;;;10.60;9.60;;;;;23.40;100940.00;;;;2043424;29;20294;-66
2021/07/20 02:39:23;;;;;;;10.73;9.20;;;;;23.40;100932.00;;;;2035426;29;20209;-66
2021/07/20 02:40:23;;;;;;;10.63;9.63;;;;;23.40;100939.00;;;;2051379;28;20648;-65
2021/07/20 02:41:25;;;;;;;10.03;9.03;;;;;23.40;100944.00;;;;2051717;28;20274;-66
2021/07/20 02:42:26;;;;;;;11.55;9.05;;;;;23.40;100937.00;;;;2052172;28;20228;-66
2021/07/20 02:43:26;;;;;;;12.07;9.50;;;;;23.40;100941.00;;;;2044308;29;20227;-66
2021/07/20 02:44:26;;;;;;;10.23;9.17;;;;;23.40;100939.00;;;;2035749;29;20221;-66
2021/07/20 02:45:28;;;;;;;10.07;9.07;;;;;23.40;100943.00;;;;2051254;28;20282;-66
2021/07/20 02:46:28;;;;;;;10.40;9.35;;;;;23.30;100941.00;;;;2043139;29;20931;-65
2021/07/20 02:47:29;;;;;;;10.30;9.30;;;;;23.40;100939.00;;;;2035754;29;20217;-66
2021/07/20 02:48:29;;;;;;;10.07;9.17;;;;;23.40;100935.00;;;;2043946;28;20766;-66
2021/07/20 02:49:30;;;;;;;10.87;9.37;;;;;23.40;100944.00;;;;2052084;28;20216;-66
2021/07/20 02:50:31;;;;;;;10.03;9.03;;;;;23.40;100935.00;;;;2051182;28;20295;-66
2021/07/20 02:51:31;;;;;;;10.10;9.10;;;;;23.40;100939.00;;;;2036143;29;20264;-65
2021/07/20 02:52:32;;;;;;;10.47;9.47;;;;;23.40;100941.00;;;;2036197;29;21028;-66
2021/07/20 02:53:32;;;;;;;10.93;9.83;;;;;23.40;100929.00;;;;2044162;29;20224;-66
2021/07/20 02:54:32;;;;;;;10.30;9.17;;;;;23.40;100951.00;;;;2055506;28;20258;-65
2021/07/20 02:55:34;;;;;;;10.20;9.20;;;;;23.40;100941.00;;;;2048406;28;20675;-65
2021/07/20 02:56:34;;;;;;;11.15;9.88;;;;;23.40;100935.00;;;;2046811;28;20630;-65
2021/07/20 02:57:36;;;;;;;10.43;9.43;;;;;23.40;100934.00;;;;2043677;29;20224;-65
2021/07/20 02:58:36;;;;;;;9.95;8.93;;;;;23.40;100937.00;;;;2043835;28;20220;-65
2021/07/20 02:59:37;;;;;;;10.90;9.40;;;;;23.40;100940.00;;;;2043995;28;20220;-65
2021/07/20 03:00:38;;;;;;;10.90;9.87;;;;;23.40;100935.00;;;;2051501;28;20757;-65
2021/07/20 03:01:38;;;;;;;10.03;9.03;;;;;23.40;100940.00;;;;2047656;28;20562;-65
2021/07/20 03:02:44;;;;;;;11.33;8.90;;;;;23.40;100934.00;;;;2047577;29;20714;-65
2021/07/20 03:03:44;;;;;;;10.02;9.13;;;;;23.40;100941.00;;;;2035961;29;20225;-65
2021/07/20 03:04:44;;;;;;;9.80;8.80;;;;;23.40;100941.00;;;;2044234;28;20229;-65
2021/07/20 03:05:46;;;;;;;9.60;8.60;;;;;23.40;100936.00;;;;2060448;28;20219;-64
2021/07/20 03:06:49;;;;;;;10.50;9.45;;;;;23.40;100949.00;;;;2051910;28;20292;-65
2021/07/20 03:07:52;;;;;;;9.70;8.70;;;;;23.40;100941.00;;;;2052172;28;20220;-65
2021/07/20 03:08:58;;;;;;;9.25;8.23;;;;;23.40;100936.00;;;;2051115;28;20215;-65
2021/07/20 03:09:58;;;;;;;9.60;8.70;;;;;23.40;100945.00;;;;2043841;29;20221;-66
2021/07/20 03:10:58;;;;;;;9.97;8.97;;;;;23.40;100941.00;;;;2043233;29;20223;-65
2021/07/20 03:12:01;;;;;;;10.83;9.50;;;;;23.40;100943.00;;;;2035320;29;20217;-65
2021/07/20 03:13:07;;;;;;;9.63;8.65;;;;;23.40;100933.00;;;;2043491;29;20653;-65
2021/07/20 03:14:12;;;;;;;9.30;8.40;;;;;23.40;100930.00;;;;2052015;28;20220;-65
2021/07/20 03:15:14;;;;;;;9.43;8.43;;;;;23.40;100937.00;;;;2059449;28;20214;-65
2021/07/20 03:16:14;;;;;;;10.13;9.10;;;;;23.40;100931.00;;;;2051101;28;20259;-65
2021/07/20 03:17:14;;;;;;;9.73;8.83;;;;;23.40;100934.00;;;;2043324;29;20213;-65
2021/07/20 03:18:15;;;;;;;10.10;9.20;;;;;23.40;100937.00;;;;2051568;28;20763;-65
2021/07/20 03:19:15;;;;;;;9.90;8.90;;;;;23.40;100941.00;;;;2051758;28;20220;-65
2021/07/20 03:20:15;;;;;;;9.60;8.70;;;;;23.40;100932.00;;;;2043621;29;20455;-65
2021/07/20 03:21:16;;;;;;;10.50;9.50;;;;;23.40;100944.00;;;;2051760;28;20223;-65
2021/07/20 03:22:16;;;;;;;10.10;9.10;;;;;23.40;100937.00;;;;2035749;29;20236;-65
2021/07/20 03:23:18;;;;;;;10.20;9.20;;;;;23.40;100939.00;;;;2033515;29;20260;-65
2021/07/20 03:24:19;;;;;;;9.73;8.80;;;;;23.40;100940.00;;;;2053036;28;20220;-65
2021/07/20 03:25:20;;;;;;;9.90;8.90;;;;;23.40;100930.00;;;;2047745;28;20587;-65
2021/07/20 03:26:20;;;;;;;10.00;8.93;;;;;23.40;100938.00;;;;2051897;28;20459;-65
2021/07/20 03:27:22;;;;;;;9.70;8.83;;;;;23.40;100940.00;;;;2057467;28;20212;-65
2021/07/20 03:28:23;;;;;;;10.02;9.02;;;;;23.40;100930.00;;;;2047571;28;20727;-65
2021/07/20 03:29:23;;;;;;;9.45;8.55;;;;;23.40;100929.00;;;;2035364;29;20308;-65
2021/07/20 03:30:25;;;;;;;9.10;8.20;;;;;23.40;100936.00;;;;2042852;29;20691;-66
2021/07/20 03:31:26;;;;;;;9.50;8.60;;;;;23.40;100927.00;;;;2043680;29;20217;-65
2021/07/20 03:32:26;;;;;;;8.40;7.60;;;;;23.40;100933.00;;;;2043911;28;20216;-65
2021/07/20 03:33:27;;;;;;;9.60;8.70;;;;;23.40;100933.00;;;;2059640;28;20215;-65
2021/07/20 03:34:27;;;;;;;10.13;9.13;;;;;23.40;100930.00;;;;2051678;28;20347;-65
2021/07/20 03:35:27;;;;;;;9.67;8.67;;;;;23.40;100923.00;;;;2042965;29;20212;-65
2021/07/20 03:36:28;;;;;;;9.00;8.10;;;;;23.40;100932.00;;;;2041764;29;20212;-65
2021/07/20 03:37:28;;;;;;;9.63;8.67;;;;;23.40;100937.00;;;;2050908;28;20217;-65
2021/07/20 03:38:28;;;;;;;9.70;8.70;;;;;23.40;100926.00;;;;2042480;29;20760;-65
2021/07/20 03:39:29;;;;;;;10.67;8.90;;;;;23.40;100924.00;;;;2027934;29;21169;-65
2021/07/20 03:40:29;;;;;;;9.10;8.20;;;;;23.40;100926.00;;;;2043234;29;20556;-65
2021/07/20 03:41:29;;;;;;;9.50;8.50;;;;;23.40;100931.00;;;;2051008;28;20213;-65
2021/07/20 03:42:30;;;;;;;10.30;9.30;;;;;23.40;100935.00;;;;2051681;28;20208;-65
2021/07/20 03:43:31;;;;;;;9.90;8.90;;;;;23.40;100933.00;;;;2043209;29;20711;-65
2021/07/20 03:44:31;;;;;;;9.20;8.30;;;;;23.40;100934.00;;;;2035107;29;20249;-65
2021/07/20 03:45:31;;;;;;;9.33;8.40;;;;;23.40;100930.00;;;;2050724;28;20700;-65
2021/07/20 03:46:32;;;;;;;9.43;8.33;;;;;23.40;100926.00;;;;2042960;29;20205;-65
2021/07/20 03:47:33;;;;;;;9.23;8.33;;;;;23.40;100923.00;;;;2035247;29;20213;-65
2021/07/20 03:48:33;;;;;;;9.82;8.82;;;;;23.40;100931.00;;;;2051805;28;20212;-65
2021/07/20 03:49:34;;;;;;;9.50;8.60;;;;;23.40;100934.00;;;;2043749;28;20268;-65
2021/07/20 03:50:35;;;;;;;9.40;8.50;;;;;23.40;100928.00;;;;2034983;29;20232;-66
2021/07/20 03:51:35;;;;;;;9.50;8.60;;;;;23.40;100931.00;;;;2035646;29;20220;-65
2021/07/20 03:52:37;;;;;;;9.93;8.93;;;;;23.40;100940.00;;;;2034989;29;20251;-65
2021/07/20 03:53:37;;;;;;;8.57;7.78;;;;;23.40;100933.00;;;;2035873;29;20247;-65
2021/07/20 03:54:37;;;;;;;10.07;9.10;;;;;23.40;100936.00;;;;2041045;29;20232;-65
2021/07/20 03:55:42;;;;;;;10.00;9.10;;;;;23.40;100937.00;;;;2047651;28;20240;-65
2021/07/20 03:56:42;;;;;;;10.23;9.23;;;;;23.40;100932.00;;;;2034451;29;20601;-65
2021/07/20 03:57:43;;;;;;;11.50;8.73;;;;;23.40;100933.00;;;;2039368;29;20252;-65
2021/07/20 03:58:43;;;;;;;8.80;7.90;;;;;23.40;100935.00;;;;2034754;29;20225;-65
2021/07/20 03:59:44;;;;;;;10.40;9.30;;;;;23.30;100938.00;;;;2031110;29;20229;-65
2021/07/20 04:00:46;;;;;;;10.83;9.03;;;;;23.40;100927.00;;;;2038810;29;20240;-65
2021/07/20 04:01:46;;;;;;;9.45;8.45;;;;;23.40;100932.00;;;;2042989;29;20217;-65
2021/07/20 04:02:59;;;;;;;9.80;8.73;;;;;23.40;100937.00;;;;2036262;29;20701;-65
2021/07/20 04:03:59;;;;;;;9.65;8.75;;;;;23.40;100933.00;;;;2048735;28;20303;-65
2021/07/20 04:04:59;;;;;;;9.80;8.53;;;;;23.40;100926.00;;;;2049646;28;20236;-65
2021/07/20 04:06:04;;;;;;;10.00;8.43;;;;;23.40;100927.00;;;;2043804;29;20275;-65
2021/07/20 04:07:06;;;;;;;9.45;8.55;;;;;23.40;100933.00;;;;2051581;28;20215;-65
2021/07/20 04:08:08;;;;;;;9.65;8.75;;;;;23.40;100939.00;;;;2045233;29;20289;-65
2021/07/20 04:09:10;;;;;;;9.75;8.75;;;;;23.40;100929.00;;;;2036478;28;20320;-66
2021/07/20 04:10:10;;;;;;;9.38;8.40;;;;;23.40;100938.00;;;;2042909;29;20208;-65
2021/07/20 04:11:12;;;;;;;9.40;8.50;;;;;23.40;100912.00;;;;2050650;28;20452;-65
2021/07/20 04:12:13;;;;;;;8.98;8.18;;;;;23.40;100935.00;;;;2050654;28;20456;-65
2021/07/20 04:13:13;;;;;;;9.60;8.60;;;;;23.40;100943.00;;;;2042769;29;20693;-65
2021/07/20 04:14:14;;;;;;;9.20;8.30;;;;;23.40;100942.00;;;;2051536;28;20672;-65
2021/07/20 04:15:15;;;;;;;10.00;9.00;;;;;23.40;100937.00;;;;2060069;28;20215;-65
2021/07/20 04:16:16;;;;;;;9.50;8.50;;;;;23.40;100931.00;;;;2043532;29;20224;-65
2021/07/20 04:17:16;;;;;;;9.77;8.57;;;;;23.40;100936.00;;;;2035571;28;20220;-65
2021/07/20 04:18:16;;;;;;;9.33;8.43;;;;;23.40;100934.00;;;;2034819;29;20449;-64
2021/07/20 04:19:17;;;;;;;8.67;7.97;;;;;23.40;100935.00;;;;2042733;29;20216;-65
2021/07/20 04:20:17;;;;;;;9.50;8.50;;;;;23.40;100934.00;;;;2050069;28;21185;-65
2021/07/20 04:21:17;;;;;;;9.57;8.67;;;;;23.40;100938.00;;;;2042785;29;20216;-65
2021/07/20 04:22:18;;;;;;;9.80;8.90;;;;;23.40;100935.00;;;;2051181;28;20224;-65
2021/07/20 04:23:21;;;;;;;9.57;8.67;;;;;23.40;100940.00;;;;2051629;28;20296;-65
2021/07/20 04:24:26;;;;;;;9.50;8.50;;;;;23.40;100939.00;;;;2059883;28;20222;-65
2021/07/20 04:25:26;;;;;;;9.98;8.88;;;;;23.40;100941.00;;;;2050383;28;20342;-65
2021/07/20 04:26:27;;;;;;;9.20;8.20;;;;;23.40;100945.00;;;;2042569;29;20287;-65
2021/07/20 04:27:27;;;;;;;9.10;8.20;;;;;23.40;100941.00;;;;2042681;29;20247;-65
2021/07/20 04:28:27;;;;;;;9.30;8.40;;;;;23.40;100944.00;;;;2042679;29;20216;-65
2021/07/20 04:29:28;;;;;;;10.07;9.07;;;;;23.40;100939.00;;;;2050585;28;20212;-65
2021/07/20 04:30:28;;;;;;;9.80;8.80;;;;;23.40;100938.00;;;;2059231;28;20298;-65
2021/07/20 04:31:29;;;;;;;9.70;8.80;;;;;23.40;100946.00;;;;2051379;28;20437;-65
2021/07/20 04:32:30;;;;;;;10.03;8.87;;;;;23.40;100945.00;;;;2035206;29;20288;-65
2021/07/20 04:33:31;;;;;;;10.00;9.00;;;;;23.40;100943.00;;;;2043343;28;20216;-65
2021/07/20 04:34:33;;;;;;;9.88;8.88;;;;;23.40;100937.00;;;;2055877;28;20650;-65
2021/07/20 04:35:33;;;;;;;10.60;9.60;;;;;23.40;100937.00;;;;2055064;28;20230;-65
2021/07/20 04:36:34;;;;;;;9.40;8.50;;;;;23.40;100937.00;;;;2047974;28;20220;-65
2021/07/20 04:37:34;;;;;;;10.00;8.87;;;;;23.40;100942.00;;;;2038455;29;20214;-65
2021/07/20 04:38:36;;;;;;;10.00;9.00;;;;;23.40;100940.00;;;;2043402;28;20217;-65
2021/07/20 04:39:36;;;;;;;9.10;8.05;;;;;23.40;100945.00;;;;2059959;28;20710;-65
2021/07/20 04:40:40;;;;;;;10.20;9.20;;;;;23.40;100945.00;;;;2049504;28;20228;-65
2021/07/20 04:41:41;;;;;;;10.80;9.70;;;;;23.40;100939.00;;;;2042995;29;20585;-65
2021/07/20 04:42:41;;;;;;;10.05;9.05;;;;;23.40;100941.00;;;;2050508;28;20223;-65
2021/07/20 04:43:43;;;;;;;10.43;9.33;;;;;23.40;100938.00;;;;2050491;28;20310;-65
2021/07/20 04:44:43;;;;;;;11.40;9.43;;;;;23.40;100951.00;;;;2050608;28;20310;-65
2021/07/20 04:45:46;;;;;;;9.27;8.37;;;;;23.40;100943.00;;;;2059245;28;20557;-65
2021/07/20 04:46:47;;;;;;;9.90;8.90;;;;;23.40;100945.00;;;;2059093;28;20260;-65
2021/07/20 04:47:47;;;;;;;10.53;9.43;;;;;23.40;100946.00;;;;2050918;28;20240;-65
2021/07/20 04:48:47;;;;;;;11.43;10.17;;;;;23.40;100951.00;;;;2043415;28;20515;-65
2021/07/20 04:49:48;;;;;;;9.03;8.13;;;;;23.40;100948.00;;;;2050146;28;20215;-65
2021/07/20 04:50:48;;;;;;;9.50;8.43;;;;;23.40;100942.00;;;;2057895;28;20227;-65
2021/07/20 04:51:48;;;;;;;9.83;8.93;;;;;23.40;100945.00;;;;2049936;28;20327;-65
2021/07/20 04:52:49;;;;;;;10.13;9.03;;;;;23.40;100942.00;;;;2050601;28;20220;-65
2021/07/20 04:53:49;;;;;;;9.33;8.43;;;;;23.40;100947.00;;;;2050658;28;20266;-65
2021/07/20 04:54:49;;;;;;;9.57;8.57;;;;;23.40;100945.00;;;;2043055;29;20213;-65
2021/07/20 04:55:51;;;;;;;9.90;8.87;;;;;23.40;100953.00;;;;2043164;29;20225;-65
2021/07/20 04:56:51;;;;;;;11.75;9.38;;;;;23.40;100946.00;;;;2051003;28;20216;-65
2021/07/20 04:57:51;;;;;;;10.23;9.20;;;;;23.40;100939.00;;;;2050999;28;20271;-65
2021/07/20 04:58:51;;;;;;;9.30;8.40;;;;;23.40;100950.00;;;;2042502;29;20220;-65
2021/07/20 04:59:52;;;;;;;10.03;9.03;;;;;23.40;100953.00;;;;2050234;28;20218;-65
2021/07/20 05:00:53;;;;;;;10.37;8.70;;;;;23.40;100941.00;;;;2049281;28;20321;-65
2021/07/20 05:01:53;;;;;;;9.25;8.35;;;;;23.40;100945.00;;;;2050211;28;20216;-65
2021/07/20 05:02:54;;;;;;;10.10;9.10;;;;;23.40;100943.00;;;;2050959;28;20224;-66
2021/07/20 05:03:55;;;;;;;9.67;8.67;;;;;23.40;100954.00;;;;2035342;29;20248;-65
2021/07/20 05:04:55;;;;;;;9.77;8.77;;;;;23.50;100950.00;;;;2032884;29;20223;-65